Latest Weather Observations for Dalby

IDQ60801

Issued at 2:35 pm EST Saturday 1 November 2014 (issued every 30 minutes, with the page automatically refreshed every 10 minutes)

About weather observations | Map of weather stations | Latest weather observations for QLD | Other Formats
Station Details ID: 041522 Name: DALBY AIRPORT Lat: -27.16 Lon: 151.26 Height: 343.9 m
Data from the previous 72 hours. | See also: Recent months at Dalby
Date/Time
EST
Temp
°C
App
Temp
°C
Dew
Point
Rel
Hum
%
Delta-T
°C
Wind Press
QNH
hPa
Press
MSL
hPa
Rain
since 9 am
mm
Dir
 
Spd
km/h
Gust
km/h
Spd
kts
Gust
kts
01/02:30pm 34.3 28.0 8.8 21 14.7 NNW 32 44 17 24 1008.9 1007.1 0.0
01/02:11pm 33.8 27.2 8.4 21 14.5 NNW 33 52 18 28 1009.3 1007.6 0.0
01/02:00pm 34.2 27.4 9.4 22 14.4 N 35 48 19 26 1009.5 1007.8 0.0
01/01:40pm 33.7 27.0 8.3 21 14.4 NNW 33 52 18 28 1009.9 1008.2 0.0
01/01:30pm 33.9 26.7 7.8 20 14.7 N 35 48 19 26 1009.9 1008.2 0.0
01/01:02pm 33.1 25.4 8.5 22 14.0 NNW 39 59 21 32 1010.7 1009.0 0.0
01/01:00pm 33.3 26.3 10.0 24 13.6 NNW 37 52 20 28 1010.7 1009.0 0.0
01/12:30pm 32.9 25.6 10.3 25 13.2 N 39 50 21 27 1011.1 1009.4 0.0
01/12:13pm 32.3 25.1 9.2 24 13.2 N 37 56 20 30 1011.4 1009.7 0.0
01/12:00pm 32.0 25.3 9.5 25 12.9 NNW 35 48 19 26 1012.2 1010.5 0.0
01/11:30am 29.9 23.9 10.9 31 11.1 N 33 44 18 24 1013.1 1011.4 0.0
01/11:00am 29.7 23.7 12.2 34 10.4 NNW 35 46 19 25 1013.4 1011.7 0.0
01/10:30am 28.9 24.0 13.6 39 9.2 N 32 41 17 22 1014.0 1012.3 0.0
01/10:00am 27.6 22.9 13.2 41 8.6 N 30 39 16 21 1014.4 1012.8 0.0
01/09:30am 25.4 20.7 14.2 50 6.7 N 32 41 17 22 1015.0 1013.6 0.0
01/09:00am 22.9 18.3 14.7 60 4.9 NNE 32 39 17 21 1015.5 1014.2 -
01/08:30am 21.7 18.5 15.3 67 3.9 N 26 32 14 17 1016.2 1014.9 -
01/08:00am 22.0 19.2 15.4 66 4.0 NW 24 30 13 16 1017.5 1016.2 -
01/07:30am 21.8 18.3 15.4 67 3.9 NW 28 35 15 19 1017.4 1016.1 -
01/07:00am 21.5 17.1 15.1 67 3.8 N 32 41 17 22 1015.9 1014.6 -
01/06:30am 21.1 17.8 15.0 68 3.7 N 26 33 14 18 1015.1 1013.8 -
01/06:00am 20.4 18.2 14.5 69 3.5 N 19 24 10 13 1014.4 1013.1 -
01/05:30am 19.9 17.7 14.9 73 3.0 NNE 20 30 11 16 1014.0 1012.7 -
01/05:00am 19.7 17.4 14.7 73 3.0 NNE 20 28 11 15 1013.9 1012.6 -
01/04:30am 19.5 19.7 14.7 74 2.8 N 7 11 4 6 1014.9 1013.5 -
01/04:00am 19.8 19.6 14.6 72 3.1 W 9 13 5 7 1015.2 1013.9 -
01/03:30am 20.2 19.2 14.6 70 3.3 NNW 13 17 7 9 1014.5 1013.2 -
01/03:00am 20.6 18.7 14.3 67 3.7 N 17 26 9 14 1013.9 1012.6 -
01/02:30am 20.9 19.0 14.1 65 4.0 N 17 26 9 14 1013.5 1012.2 -
01/02:00am 21.2 19.2 13.9 63 4.3 NNE 17 24 9 13 1013.4 1012.1 -
01/01:30am 22.0 19.5 14.1 61 4.7 - 20 24 11 13 1013.4 1012.1 -
01/01:00am 22.3 18.9 14.7 62 4.6 N 26 35 14 19 1013.4 1012.1 0.0
01/12:30am 22.5 18.8 14.9 62 4.6 NNE 28 35 15 19 1013.5 1012.2 0.0
01/12:00am 23.0 18.8 14.6 59 5.0 N 30 39 16 21 1014.0 1012.7 0.0
 
Date/Time
EST
Temp
°C
App
Temp
°C
Dew
Point
Rel
Hum
%
Delta-T
°C
Wind Press
QNH
hPa
Press
MSL
hPa
Rain
since 9 am
mm
Dir
 
Spd
km/h
Gust
km/h
Spd
kts
Gust
kts
31/11:30pm 23.5 18.9 14.5 57 5.4 N 32 41 17 22 1014.3 1013.0 0.0
31/11:00pm 24.0 19.7 14.4 55 5.8 N 30 39 16 21 1014.5 1013.2 0.0
31/10:30pm 24.6 20.3 14.4 53 6.1 N 30 39 16 21 1014.3 1013.0 0.0
31/10:00pm 25.3 20.8 13.8 49 6.9 NNE 30 35 16 19 1014.4 1013.1 0.0
31/09:30pm 26.3 20.9 13.8 46 7.5 N 35 44 19 24 1014.2 1012.9 0.0
31/09:00pm 27.2 21.4 13.9 44 8.0 N 37 46 20 25 1013.9 1012.6 0.0
31/08:30pm 28.0 21.8 13.9 42 8.5 NNE 39 52 21 28 1013.2 1011.9 0.0
31/08:00pm 28.7 22.4 13.4 39 9.2 NNE 39 52 21 28 1012.8 1011.5 0.0
31/07:40pm 29.2 23.5 13.0 37 9.7 NNE 35 54 19 29 1012.7 1011.4 0.0
31/07:30pm 29.4 23.9 11.9 34 10.3 NNE 32 46 17 25 1012.5 1011.1 0.0
31/07:29pm 29.3 23.8 11.8 34 10.3 NNE 32 46 17 25 1012.5 1011.1 0.0
31/07:00pm 27.7 24.6 10.4 34 9.9 ENE 17 20 9 11 1012.1 1010.7 0.0
31/06:30pm 27.7 23.3 10.4 34 9.9 E 24 28 13 15 1011.8 1010.4 0.0
31/06:00pm 28.6 23.3 8.3 28 11.3 ENE 26 35 14 19 1011.3 1010.0 0.0
31/05:30pm 28.9 22.8 9.6 30 10.9 ENE 32 46 17 25 1011.3 1010.0 0.0
31/05:15pm 29.6 22.7 10.2 30 11.1 E 37 46 20 25 1011.0 1009.7 0.0
31/05:00pm 31.7 27.0 9.3 25 12.8 NE 24 41 13 22 1010.8 1009.5 0.0
31/04:30pm 34.1 28.3 6.4 18 15.3 N 26 32 14 17 1010.7 1009.4 0.0
31/04:00pm 34.7 29.6 6.1 17 15.8 N 22 37 12 20 1010.4 1009.1 0.0
31/03:30pm 34.5 29.0 7.5 19 15.2 N 26 37 14 20 1010.5 1009.2 0.0
31/03:00pm 34.4 27.7 5.8 17 15.7 N 30 35 16 19 1010.9 1009.6 0.0
31/02:30pm 35.4 29.7 6.6 17 16.1 NNW 26 33 14 18 1011.1 1009.8 0.0
31/02:00pm 33.6 29.8 6.0 18 15.1 NNE 15 28 8 15 1011.5 1010.2 0.0
31/01:30pm 34.7 29.8 6.9 18 15.5 NNW 22 33 12 18 1012.1 1010.7 0.0
31/01:00pm 34.0 31.0 7.9 20 14.8 N 13 24 7 13 1012.6 1011.3 0.0
31/12:30pm 33.9 29.8 7.8 20 14.7 NNW 19 30 10 16 1013.2 1011.9 0.0
31/12:00pm 33.0 29.6 10.4 25 13.2 N 19 28 10 15 1013.7 1012.4 0.0
31/11:30am 32.6 28.9 10.0 25 13.1 N 20 32 11 17 1014.3 1013.0 0.0
31/11:00am 32.1 28.5 10.7 27 12.5 NNW 20 26 11 14 1015.1 1013.8 0.0
31/10:30am 30.7 28.2 11.1 30 11.5 NNE 15 28 8 15 1015.6 1014.3 0.0
31/10:00am 29.8 27.0 11.3 32 10.8 N 17 28 9 15 1016.1 1014.8 0.0
31/09:30am 28.3 25.8 10.9 34 10.1 N 15 26 8 14 1016.4 1015.1 0.0
31/09:00am 27.8 24.9 10.9 35 9.7 NNE 17 26 9 14 1016.5 1015.2 0.0
31/08:30am 26.2 24.8 14.6 48 7.0 NE 15 20 8 11 1016.7 1015.4 0.0
31/08:00am 25.7 23.9 15.4 53 6.3 NNE 19 26 10 14 1017.0 1015.7 0.0
31/07:30am 24.4 22.3 15.3 57 5.6 NE 20 26 11 14 1016.9 1015.6 0.0
31/07:00am 24.1 21.2 13.9 53 6.1 N 22 30 12 16 1016.6 1015.3 0.0
31/06:30am 22.6 19.8 13.1 55 5.5 N 20 26 11 14 1016.7 1015.4 0.0
31/06:00am 21.2 19.6 13.9 63 4.3 N 15 19 8 10 1016.7 1015.4 0.0
31/05:30am 20.0 18.3 14.8 72 3.1 N 17 20 9 11 1016.4 1015.1 0.0
31/05:00am 19.7 19.2 16.0 79 2.2 NW 13 17 7 9 1016.3 1015.0 0.0
31/04:30am 20.5 19.1 16.5 78 2.5 NW 19 24 10 13 1015.8 1014.5 0.0
31/04:00am 20.3 20.8 16.5 79 2.3 W 9 13 5 7 1015.4 1014.1 0.0
31/03:30am 20.2 20.9 16.2 78 2.4 W 7 11 4 6 1014.7 1013.4 0.0
31/03:00am 20.0 20.3 16.0 78 2.4 W 9 11 5 6 1014.4 1013.1 0.0
31/02:30am 19.3 19.4 15.6 79 2.2 WNW 9 11 5 6 1014.2 1012.9 0.0
31/02:00am 19.2 20.6 14.5 74 2.8 CALM 0 0 0 0 1014.3 1013.0 0.0
31/01:30am 20.0 20.1 15.4 75 2.8 ESE 9 11 5 6 1014.2 1012.9 0.0
31/01:00am 21.1 20.6 15.9 72 3.2 ESE 13 15 7 8 1014.4 1013.1 0.0
31/12:30am 21.8 22.2 16.3 71 3.4 SE 9 15 5 8 1014.9 1013.5 0.0
31/12:00am 22.0 22.6 15.8 68 3.8 NE 7 9 4 5 1015.2 1013.9 0.0
 
Date/Time
EST
Temp
°C
App
Temp
°C
Dew
Point
Rel
Hum
%
Delta-T
°C
Wind Press
QNH
hPa
Press
MSL
hPa
Rain
since 9 am
mm
Dir
 
Spd
km/h
Gust
km/h
Spd
kts
Gust
kts
30/11:30pm 23.2 23.0 16.7 67 4.0 NE 13 17 7 9 1015.1 1013.8 0.0
30/11:00pm 23.7 22.9 17.0 66 4.2 NNE 17 24 9 13 1015.1 1013.8 0.0
30/10:30pm 24.3 21.0 17.1 64 4.5 NNE 30 39 16 21 1015.6 1014.3 0.0
30/10:00pm 24.9 23.5 16.9 61 5.0 NNE 20 28 11 15 1015.5 1014.2 0.0
30/09:30pm 25.3 22.9 16.4 57 5.5 NNE 24 30 13 16 1015.2 1013.9 0.0
30/09:07pm 26.0 22.1 16.5 55 5.9 NNE 32 41 17 22 1014.7 1013.4 0.0
30/09:00pm 25.4 24.9 14.8 52 6.4 NE 11 20 6 11 1014.6 1013.3 0.0
30/08:30pm 26.5 22.2 15.8 51 6.6 NE 33 43 18 23 1013.6 1012.3 0.0
30/08:00pm 26.4 22.0 10.5 37 9.0 ENE 24 32 13 17 1013.3 1012.0 0.0
30/07:30pm 25.4 21.9 5.6 28 10.3 ENE 13 15 7 8 1012.6 1011.3 0.0
30/07:00pm 25.4 22.2 5.1 27 10.5 NNE 11 13 6 7 1012.4 1011.0 0.0
30/06:30pm 28.7 26.1 6.1 24 12.1 NNE 9 13 5 7 1012.3 1010.9 0.0
30/06:00pm 30.1 27.6 6.7 23 12.7 NE 9 11 5 6 1012.0 1010.6 0.0
30/05:30pm 32.2 31.4 6.4 20 14.1 CALM 0 6 0 3 1011.6 1010.3 0.0
30/05:00pm 32.6 30.1 6.7 20 14.3 S 9 13 5 7 1011.6 1010.3 0.0
30/04:30pm 32.8 30.8 6.9 20 14.3 ESE 7 19 4 10 1011.6 1010.3 0.0
30/04:00pm 32.5 30.0 6.7 20 14.2 SSW 9 15 5 8 1011.6 1010.3 0.0
30/03:30pm 33.3 29.3 6.6 19 14.7 WNW 17 30 9 16 1012.0 1010.6 0.0
30/03:00pm 32.8 29.6 6.9 20 14.3 WNW 13 20 7 11 1012.2 1010.8 0.0
30/02:30pm 32.7 28.5 7.5 21 14.1 N 19 26 10 14 1012.3 1010.9 0.0
30/02:00pm 32.9 30.3 7.7 21 14.1 W 11 20 6 11 1012.8 1011.5 0.0
30/01:30pm 32.6 30.3 7.4 21 14.0 S 9 22 5 12 1013.3 1012.0 0.0
30/01:00pm 31.9 29.0 8.2 23 13.3 NNW 13 26 7 14 1013.9 1012.6 0.0
30/12:30pm 32.0 29.2 10.1 26 12.7 NNW 15 30 8 16 1014.3 1013.0 0.0
30/12:00pm 30.8 28.4 10.2 28 11.9 NW 13 20 7 11 1015.0 1013.6 0.0
30/11:30am 30.3 28.2 11.3 31 11.1 NNW 13 24 7 13 1015.6 1014.3 0.0
30/11:00am 29.2 28.6 12.2 35 10.1 S 7 13 4 7 1016.3 1015.0 0.0
30/10:30am 27.6 26.5 12.0 38 9.1 NW 9 19 5 10 1016.9 1015.6 0.0
30/10:00am 26.6 25.5 13.0 43 8.1 NNW 11 20 6 11 1017.4 1016.1 0.0
30/09:30am 25.4 24.8 13.6 48 7.0 NNE 9 17 5 9 1017.7 1016.5 0.0
30/09:00am 24.6 24.0 13.5 50 6.6 NNW 9 15 5 8 1018.1 1016.8 0.0
30/08:30am 23.0 23.1 14.0 57 5.3 N 6 13 3 7 1018.1 1016.8 0.0
30/08:00am 22.4 22.4 14.3 60 4.8 N 7 15 4 8 1018.1 1016.8 0.0
30/07:30am 21.8 21.8 14.2 62 4.5 ENE 7 11 4 6 1018.0 1016.7 0.0
30/07:00am 20.8 19.4 14.5 67 3.7 ENE 15 17 8 9 1017.9 1016.6 0.0
30/06:30am 19.6 17.9 14.6 73 3.0 ENE 17 20 9 11 1017.6 1016.4 0.0
30/06:00am 17.8 17.0 13.9 78 2.3 E 11 13 6 7 1017.3 1016.0 0.0
30/05:30am 16.8 15.9 13.7 82 1.8 ESE 11 13 6 7 1017.0 1015.7 0.0
30/05:00am 16.3 14.8 13.2 82 1.8 ESE 13 13 7 7 1016.6 1015.3 0.0
30/04:30am 16.6 15.2 13.5 82 1.8 ESE 13 15 7 8 1016.1 1014.8 0.0
30/04:00am 16.9 15.3 13.8 82 1.8 ESE 15 17 8 9 1015.9 1014.6 0.0
30/03:30am 17.4 15.9 14.1 81 1.9 ESE 15 17 8 9 1015.7 1014.4 0.0
30/03:00am 17.7 15.4 14.2 80 2.0 ESE 19 22 10 12 1015.5 1014.2 0.0
30/02:30am 17.8 15.9 14.1 79 2.2 ESE 17 20 9 11 1015.7 1014.4 0.0
30/02:00am 18.3 16.5 14.4 78 2.3 ESE 17 20 9 11 1016.0 1014.7 0.0
30/01:30am 18.6 16.7 14.3 76 2.5 E 17 20 9 11 1016.0 1014.7 0.0
30/01:00am 18.9 16.8 14.6 76 2.5 E 19 24 10 13 1016.1 1014.8 0.0
30/12:30am 19.3 15.8 14.6 74 2.8 E 26 33 14 18 1016.2 1014.9 0.0
30/12:00am 19.6 16.1 14.4 72 3.1 E 26 35 14 19 1016.2 1014.9 0.0
 
Date/Time
EST
Temp
°C
App
Temp
°C
Dew
Point
Rel
Hum
%
Delta-T
°C
Wind Press
QNH
hPa
Press
MSL
hPa
Rain
since 9 am
mm
Dir
 
Spd
km/h
Gust
km/h
Spd
kts
Gust
kts
29/11:30pm 19.8 16.6 14.2 70 3.3 E 24 32 13 17 1016.3 1015.0 0.0
29/11:00pm 20.2 16.3 14.3 69 3.5 E 28 39 15 21 1016.4 1015.1 0.0
29/10:30pm 20.6 16.7 14.5 68 3.6 E 28 35 15 19 1016.4 1015.1 0.0
29/10:00pm 21.3 16.7 14.7 66 3.9 E 32 43 17 23 1016.2 1014.9 0.0
29/09:30pm 22.1 17.6 15.0 64 4.3 E 32 41 17 22 1015.9 1014.6 0.0
29/09:00pm 22.9 17.7 14.5 59 5.0 E 35 44 19 24 1015.5 1014.2 0.0
29/08:30pm 23.8 19.1 13.1 51 6.3 E 30 43 16 23 1015.1 1013.8 0.0
29/08:00pm 24.5 20.1 11.8 45 7.3 E 26 33 14 18 1014.5 1013.2 0.0
29/07:48pm 25.0 20.0 10.8 41 8.1 E 28 35 15 19 1014.4 1013.1 0.0
29/07:30pm 25.7 21.3 -2.8 15 12.7 SSW 11 15 6 8 1013.9 1012.6 0.0
29/07:00pm 25.1 20.3 -2.5 16 12.3 WSW 13 13 7 7 1013.6 1012.3 0.0
29/06:30pm 26.6 22.5 -3.1 14 13.3 W 9 11 5 6 1013.2 1011.9 0.0
29/06:00pm 30.6 25.7 -3.2 11 15.6 W 13 15 7 8 1012.9 1011.6 0.0
29/05:30pm 32.9 28.1 -2.7 10 16.8 W 13 19 7 10 1012.6 1011.3 0.0
29/05:00pm 33.8 28.7 -2.0 10 17.3 SW 15 22 8 12 1012.4 1011.0 0.0
29/04:30pm 34.1 28.3 -1.8 10 17.4 WSW 19 28 10 15 1012.1 1010.7 0.0
29/04:00pm 34.1 29.8 -1.8 10 17.4 W 11 22 6 12 1012.0 1010.6 0.0
29/03:30pm 34.6 28.8 -1.4 10 17.6 SW 19 30 10 16 1012.2 1010.8 0.0
29/03:00pm 34.1 27.9 -3.2 9 17.7 S 20 30 11 16 1012.3 1010.9 0.0

Other Formats:

Comma delimited format used in spreadsheet applications
http://www.bom.gov.au/fwo/IDQ60801/IDQ60801.94542.axf

JavaScript Object Notation format (JSON) in row-major order
http://www.bom.gov.au/fwo/IDQ60801/IDQ60801.94542.json